Time;durP1;ratioP1;P1;durP2;ratioP2;P2;SDS_P1;SDS_P2;PMS_P1;PMS_P2;Temp;Humidity;BMP_temperature;BMP_pressure;BME280_temperature;BME280_humidity;BME280_pressure;Samples;Min_cycle;Max_cycle;Signal;HPM_P1;HPM_P2
2022/08/28 00:00:26;;;;;;;1999.90;999.90;;;20.40;99.90;;;;;;5034384;28;20411;-65
2022/08/28 00:02:53;;;;;;;1999.90;999.90;;;20.40;99.90;;;;;;5034233;28;20437;-65
2022/08/28 00:05:21;;;;;;;1999.90;999.90;;;20.30;99.90;;;;;;5034001;28;20435;-66
2022/08/28 00:07:47;;;;;;;1999.90;999.90;;;20.30;99.90;;;;;;5033796;28;20424;-65
2022/08/28 00:10:15;;;;;;;1999.90;999.90;;;20.40;99.90;;;;;;5034013;28;20781;-66
2022/08/28 00:12:40;;;;;;;1999.90;999.90;;;20.40;99.90;;;;;;5033990;28;20409;-66
2022/08/28 00:15:10;;;;;;;1999.90;999.90;;;20.30;99.90;;;;;;5034036;28;20407;-65
2022/08/28 00:17:36;;;;;;;1999.90;999.90;;;20.30;99.90;;;;;;5033438;28;20212;-65
2022/08/28 00:20:04;;;;;;;1999.90;999.90;;;20.30;99.90;;;;;;5033852;28;20413;-65
2022/08/28 00:22:30;;;;;;;1999.90;999.90;;;20.30;99.90;;;;;;5033832;28;20176;-66
2022/08/28 00:24:55;;;;;;;1999.90;999.90;;;20.30;99.90;;;;;;5033749;28;20516;-64
2022/08/28 00:30:05;;;;;;;1999.90;999.90;;;20.30;99.90;;;;;;5033874;28;20259;-65
2022/08/28 00:32:33;;;;;;;1999.90;999.90;;;20.30;99.90;;;;;;5033786;28;20844;-65
2022/08/28 00:35:00;;;;;;;1999.90;999.90;;;20.30;99.90;;;;;;5033701;28;20401;-64
2022/08/28 00:37:27;;;;;;;1999.90;999.90;;;20.20;99.90;;;;;;5033492;28;20431;-65
2022/08/28 00:39:53;;;;;;;1999.90;999.90;;;20.20;99.90;;;;;;5033646;28;20415;-64
2022/08/28 00:42:19;;;;;;;1999.90;999.90;;;20.20;99.90;;;;;;5033482;28;20415;-65
2022/08/28 00:44:45;;;;;;;1999.90;999.90;;;20.20;99.90;;;;;;5033353;28;20461;-64
2022/08/28 00:47:10;;;;;;;1999.90;999.90;;;20.10;99.90;;;;;;5033087;28;20401;-65
2022/08/28 00:49:44;;;;;;;1999.90;999.90;;;20.10;99.90;;;;;;5033389;28;20203;-66
2022/08/28 00:52:11;;;;;;;1999.90;999.90;;;20.10;99.90;;;;;;5033357;28;20195;-64
2022/08/28 00:54:47;;;;;;;1999.90;999.90;;;20.10;99.90;;;;;;5033340;28;20852;-65
2022/08/28 00:57:17;;;;;;;1999.90;999.90;;;20.00;99.90;;;;;;5032674;28;20427;-64
2022/08/28 00:59:42;;;;;;;1999.90;999.90;;;20.00;99.90;;;;;;5033218;28;20399;-63
2022/08/28 01:02:08;;;;;;;1999.90;999.90;;;20.00;99.90;;;;;;5033145;28;20483;-64
2022/08/28 01:04:35;;;;;;;1999.90;999.90;;;20.00;99.90;;;;;;5032921;28;20223;-64
2022/08/28 01:07:05;;;;;;;1999.90;999.90;;;19.90;99.90;;;;;;5032716;28;20439;-64
2022/08/28 01:09:32;;;;;;;1999.90;999.90;;;19.90;99.90;;;;;;5032999;28;20813;-63
2022/08/28 01:12:07;;;;;;;1999.90;999.90;;;19.90;99.90;;;;;;5032951;28;20878;-63
2022/08/28 01:14:36;;;;;;;1999.90;999.90;;;19.80;99.90;;;;;;5033048;28;20409;-64
2022/08/28 01:17:02;;;;;;;1999.90;999.90;;;19.80;99.90;;;;;;5032371;28;20438;-65
2022/08/28 01:19:36;;;;;;;1999.90;999.90;;;19.80;99.90;;;;;;5032686;28;20426;-66
2022/08/28 01:22:16;;;;;;;1999.90;999.90;;;19.80;99.90;;;;;;5032408;28;20771;-65
2022/08/28 01:24:43;;;;;;;1999.90;999.90;;;19.70;99.90;;;;;;5032640;28;20498;-66
2022/08/28 01:27:10;;;;;;;1999.90;999.90;;;19.70;99.90;;;;;;5032407;28;20503;-65
2022/08/28 01:29:35;;;;;;;1999.90;999.90;;;19.60;99.90;;;;;;5032590;28;20445;-65
2022/08/28 01:32:02;;;;;;;1999.90;999.90;;;19.60;99.90;;;;;;5032572;28;20461;-65
2022/08/28 01:34:29;;;;;;;1999.90;999.90;;;19.60;99.90;;;;;;5032469;28;21113;-65
2022/08/28 01:36:54;;;;;;;1999.90;999.90;;;19.60;99.90;;;;;;5032223;28;20438;-65
2022/08/28 01:39:23;;;;;;;1999.90;999.90;;;19.60;99.90;;;;;;5032531;28;20408;-64
2022/08/28 01:41:51;;;;;;;1999.90;999.90;;;19.50;99.90;;;;;;5032449;28;20218;-65
2022/08/28 01:44:23;;;;;;;1999.90;999.90;;;19.40;99.90;;;;;;5032216;28;20486;-66
2022/08/28 01:46:49;;;;;;;1999.90;999.90;;;19.40;99.90;;;;;;5032071;28;20559;-66
2022/08/28 01:49:14;;;;;;;1999.90;999.90;;;19.40;99.90;;;;;;5032248;28;20393;-64
2022/08/28 01:51:40;;;;;;;1999.90;999.90;;;19.40;99.90;;;;;;5032188;28;20394;-65
2022/08/28 01:54:07;;;;;;;1999.90;999.90;;;19.40;99.90;;;;;;5032279;28;20156;-65
2022/08/28 01:56:33;;;;;;;1999.90;999.90;;;19.40;99.90;;;;;;5031802;28;20422;-64
2022/08/28 01:59:02;;;;;;;1999.90;999.90;;;19.30;99.90;;;;;;5032185;28;20461;-66
2022/08/28 02:01:28;;;;;;;1999.90;999.90;;;19.30;99.90;;;;;;5032080;28;20451;-65
2022/08/28 02:03:54;;;;;;;1999.90;999.90;;;19.30;99.90;;;;;;5031966;28;20403;-66
2022/08/28 02:06:21;;;;;;;1999.90;999.90;;;19.30;99.90;;;;;;5031601;28;20456;-63
2022/08/28 02:08:48;;;;;;;1999.90;999.90;;;19.30;99.90;;;;;;5032178;28;20427;-65
2022/08/28 02:11:15;;;;;;;1999.90;999.90;;;19.30;99.90;;;;;;5032148;28;20460;-65
2022/08/28 02:13:41;;;;;;;1999.90;999.90;;;19.20;99.90;;;;;;5032157;28;20864;-64
2022/08/28 02:16:08;;;;;;;1999.90;999.90;;;19.30;99.90;;;;;;5031541;28;20508;-64
2022/08/28 02:18:35;;;;;;;1999.90;999.90;;;19.30;99.90;;;;;;5031872;28;20416;-65
2022/08/28 02:21:01;;;;;;;1999.90;999.90;;;19.20;99.90;;;;;;5031958;28;20500;-65
2022/08/28 02:23:26;;;;;;;1999.90;999.90;;;19.10;99.90;;;;;;5031932;28;20508;-65
2022/08/28 02:25:52;;;;;;;1999.90;999.90;;;19.10;99.90;;;;;;5031667;28;20202;-65
2022/08/28 02:28:17;;;;;;;1999.90;999.90;;;19.10;99.90;;;;;;5031610;28;20194;-64
2022/08/28 02:30:43;;;;;;;1999.90;999.90;;;19.10;99.90;;;;;;5031980;28;20255;-65
2022/08/28 02:35:35;;;;;;;1999.90;999.90;;;19.10;99.90;;;;;;5072622;22;20320;-71
2022/08/28 02:38:03;;;;;;;1999.90;999.90;;;19.00;99.90;;;;;;5035671;28;20504;-72
2022/08/28 02:40:29;;;;;;;1999.90;999.90;;;18.90;99.90;;;;;;5035788;28;20208;-72
2022/08/28 02:42:54;;;;;;;1999.90;999.90;;;18.90;99.90;;;;;;5035837;28;20495;-72
2022/08/28 02:45:20;;;;;;;1999.90;999.90;;;18.80;99.90;;;;;;5035644;28;20688;-72
2022/08/28 02:47:47;;;;;;;1999.90;999.90;;;18.80;99.90;;;;;;5035248;28;20180;-71
2022/08/28 02:50:16;;;;;;;1999.90;999.90;;;18.70;99.90;;;;;;5035823;28;20403;-71
2022/08/28 02:52:42;;;;;;;1999.90;999.90;;;18.70;99.90;;;;;;5035562;28;20417;-71
2022/08/28 02:55:11;;;;;;;1999.90;999.90;;;18.70;99.90;;;;;;5035567;28;20445;-72
2022/08/28 02:57:36;;;;;;;1999.90;999.90;;;18.60;99.90;;;;;;5035241;28;20414;-72
2022/08/28 03:00:10;;;;;;;1999.90;999.90;;;18.60;99.90;;;;;;5035448;28;20416;-72
2022/08/28 03:02:36;;;;;;;1999.90;999.90;;;18.60;99.90;;;;;;5035336;28;20197;-71
2022/08/28 03:05:03;;;;;;;1999.90;999.90;;;18.60;99.90;;;;;;5035202;28;20456;-71
2022/08/28 03:07:28;;;;;;;1999.90;999.90;;;18.60;99.90;;;;;;5035290;28;20913;-72
2022/08/28 03:09:54;;;;;;;1999.90;999.90;;;18.60;99.90;;;;;;5035346;28;20406;-72
2022/08/28 03:12:22;;;;;;;1999.90;999.90;;;18.60;99.90;;;;;;5035269;28;20607;-72
2022/08/28 03:14:50;;;;;;;1999.90;999.90;;;18.60;99.90;;;;;;5035075;28;20203;-72
2022/08/28 03:17:16;;;;;;;1999.90;999.90;;;18.50;99.90;;;;;;5034808;28;20483;-72
2022/08/28 03:19:41;;;;;;;1999.90;999.90;;;18.40;99.90;;;;;;5035058;28;20508;-72
2022/08/28 03:22:07;;;;;;;1999.90;999.90;;;18.40;99.90;;;;;;5035077;28;20171;-72
2022/08/28 03:24:34;;;;;;;1999.90;999.90;;;18.40;99.90;;;;;;5034859;28;20189;-72
2022/08/28 03:27:00;;;;;;;1999.90;999.90;;;18.30;99.90;;;;;;5034701;28;20168;-72
2022/08/28 03:29:26;;;;;;;1999.90;999.90;;;18.20;99.90;;;;;;5034859;28;20394;-72
2022/08/28 03:31:52;;;;;;;1999.90;999.90;;;18.10;99.90;;;;;;5034825;28;20448;-72
2022/08/28 03:34:18;;;;;;;1999.90;999.90;;;18.10;99.90;;;;;;5034635;28;20448;-72
2022/08/28 03:36:43;;;;;;;1999.90;999.90;;;18.00;99.90;;;;;;5034608;28;20176;-72
2022/08/28 03:39:09;;;;;;;1999.90;999.90;;;17.90;99.90;;;;;;5034727;28;20164;-72
2022/08/28 03:41:35;;;;;;;1999.90;999.90;;;17.90;99.90;;;;;;5034711;28;20189;-71
2022/08/28 03:44:02;;;;;;;1999.90;999.90;;;17.90;99.90;;;;;;5034024;28;20426;-72
2022/08/28 03:46:31;;;;;;;1999.90;999.90;;;17.80;99.90;;;;;;5034108;28;20456;-71
2022/08/28 03:48:58;;;;;;;1999.90;999.90;;;17.80;99.90;;;;;;5034680;28;20846;-72
2022/08/28 03:51:28;;;;;;;1999.90;999.90;;;17.80;99.90;;;;;;5034560;28;20407;-71
2022/08/28 03:53:53;;;;;;;1999.90;999.90;;;17.80;99.90;;;;;;5034363;28;20467;-72
2022/08/28 03:56:23;;;;;;;1999.90;999.90;;;17.80;99.90;;;;;;5034134;28;20439;-72
2022/08/28 03:58:52;;;;;;;1999.90;999.90;;;17.70;99.90;;;;;;5034388;28;20178;-72
2022/08/28 04:01:18;;;;;;;1999.90;999.90;;;17.70;99.90;;;;;;5034303;28;20403;-72
2022/08/28 04:03:44;;;;;;;1999.90;999.90;;;17.60;99.90;;;;;;5034153;28;20928;-71
2022/08/28 04:06:11;;;;;;;1999.90;999.90;;;17.60;99.90;;;;;;5033819;28;20456;-72
2022/08/28 04:08:37;;;;;;;1999.90;999.90;;;17.60;99.90;;;;;;5034194;28;20441;-72
2022/08/28 04:11:03;;;;;;;1999.90;999.90;;;17.50;99.90;;;;;;5034030;28;20402;-72
2022/08/28 04:13:30;;;;;;;1999.90;999.90;;;17.50;99.90;;;;;;5034214;28;20418;-72
2022/08/28 04:16:09;;;;;;;1999.90;999.90;;;17.50;99.90;;;;;;5033796;28;20419;-72
2022/08/28 04:18:36;;;;;;;1999.90;999.90;;;17.50;99.90;;;;;;5034113;28;20426;-72
2022/08/28 04:21:11;;;;;;;1999.90;999.90;;;17.40;99.90;;;;;;5033998;28;20475;-72
2022/08/28 04:23:39;;;;;;;1999.90;999.90;;;17.30;99.90;;;;;;5033706;28;20509;-71
2022/08/28 04:26:08;;;;;;;1999.90;999.90;;;17.30;99.90;;;;;;5033525;28;20451;-71
2022/08/28 04:28:34;;;;;;;1999.90;999.90;;;17.30;99.90;;;;;;5033802;28;20411;-72
2022/08/28 04:31:00;;;;;;;1999.90;999.90;;;17.30;99.90;;;;;;5033772;28;20410;-71
2022/08/28 04:33:27;;;;;;;1999.90;999.90;;;17.30;99.90;;;;;;5033583;28;20563;-72
2022/08/28 04:35:53;;;;;;;1999.90;999.90;;;17.40;99.90;;;;;;5033643;28;20406;-72
2022/08/28 04:38:18;;;;;;;1999.90;999.90;;;17.30;99.90;;;;;;5033405;28;20916;-72
2022/08/28 04:40:44;;;;;;;1999.90;999.90;;;17.30;99.90;;;;;;5033586;28;20243;-72
2022/08/28 04:43:10;;;;;;;1999.90;999.90;;;17.20;99.90;;;;;;5033532;28;20179;-72
2022/08/28 04:45:43;;;;;;;1999.90;999.90;;;17.20;99.90;;;;;;5033380;28;20457;-71
2022/08/28 04:48:11;;;;;;;1999.90;999.90;;;17.20;99.90;;;;;;5033227;28;20815;-71
2022/08/28 04:50:48;;;;;;;1999.90;999.90;;;17.20;99.90;;;;;;5033359;28;20442;-72
2022/08/28 04:53:16;;;;;;;1999.90;999.90;;;17.20;99.90;;;;;;5033464;28;20430;-72
2022/08/28 04:55:44;;;;;;;1999.90;999.90;;;17.20;99.90;;;;;;5032349;28;20921;-72
2022/08/28 04:58:10;;;;;;;1999.90;999.90;;;17.20;99.90;;;;;;5032966;28;20482;-72
2022/08/28 05:00:37;;;;;;;1999.90;999.90;;;17.20;99.90;;;;;;5033155;28;20414;-72
2022/08/28 05:03:03;;;;;;;1999.90;999.90;;;17.10;99.90;;;;;;5033135;28;20178;-72
2022/08/28 05:05:29;;;;;;;1999.90;999.90;;;17.10;99.90;;;;;;5032913;28;20455;-72
2022/08/28 05:07:54;;;;;;;1999.90;999.90;;;17.10;99.90;;;;;;5033001;28;20252;-71
2022/08/28 05:10:20;;;;;;;1999.90;999.90;;;17.20;99.90;;;;;;5033062;28;20250;-72
2022/08/28 05:12:46;;;;;;;1999.90;999.90;;;17.20;99.90;;;;;;5033002;28;20160;-72
2022/08/28 05:15:12;;;;;;;1999.90;999.90;;;17.20;99.90;;;;;;5032878;28;20575;-72
2022/08/28 05:17:38;;;;;;;1999.90;999.90;;;17.30;99.90;;;;;;5032492;28;20178;-71
2022/08/28 05:20:04;;;;;;;1999.90;999.90;;;17.30;99.90;;;;;;5032772;28;20406;-72
2022/08/28 05:22:31;;;;;;;1999.90;999.90;;;17.30;99.90;;;;;;5032965;28;20259;-72
2022/08/28 05:24:57;;;;;;;1999.90;999.90;;;17.30;99.90;;;;;;5032631;28;20450;-72
2022/08/28 05:27:23;;;;;;;1999.90;999.90;;;17.40;99.90;;;;;;5032488;28;20399;-72
2022/08/28 05:29:49;;;;;;;1999.90;999.90;;;17.50;99.90;;;;;;5032647;28;20563;-72
2022/08/28 05:32:15;;;;;;;1999.90;999.90;;;17.50;99.90;;;;;;5032591;28;20402;-72
2022/08/28 05:34:41;;;;;;;1999.90;999.90;;;17.50;99.90;;;;;;5032360;28;20552;-72
2022/08/28 05:37:07;;;;;;;1999.90;999.90;;;17.50;99.90;;;;;;5032309;28;20566;-71
2022/08/28 05:39:33;;;;;;;1999.90;999.90;;;17.50;99.90;;;;;;5032576;28;20177;-72
2022/08/28 05:41:58;;;;;;;1999.90;999.90;;;17.50;99.90;;;;;;5032395;28;20413;-72
2022/08/28 05:44:24;;;;;;;1999.90;999.90;;;17.60;99.90;;;;;;5032351;28;20192;-72
2022/08/28 05:46:50;;;;;;;1999.90;999.90;;;17.60;99.90;;;;;;5031964;28;20258;-71
2022/08/28 05:49:18;;;;;;;1999.90;999.90;;;17.70;99.90;;;;;;5032561;28;20175;-71
2022/08/28 05:51:45;;;;;;;1999.90;999.90;;;17.70;99.90;;;;;;5032279;28;20174;-72
2022/08/28 05:54:11;;;;;;;1999.90;999.90;;;17.80;99.90;;;;;;5032292;28;20569;-72
2022/08/28 05:56:39;;;;;;;1999.90;999.90;;;17.80;99.90;;;;;;5031956;28;20405;-72
2022/08/28 05:59:07;;;;;;;1999.90;999.90;;;17.80;99.90;;;;;;5032153;28;20410;-71
2022/08/28 06:01:37;;;;;;;1999.90;999.90;;;17.90;99.90;;;;;;5032136;28;20916;-71
2022/08/28 06:04:05;;;;;;;1999.90;999.90;;;17.90;99.90;;;;;;5032071;28;20427;-71
2022/08/28 06:06:37;;;;;;;1999.90;999.90;;;17.90;99.90;;;;;;5031631;28;20549;-72
2022/08/28 06:09:15;;;;;;;1999.90;999.90;;;17.90;99.90;;;;;;5032129;28;20464;-71
2022/08/28 06:11:43;;;;;;;1999.90;999.90;;;18.00;99.90;;;;;;5032046;28;20428;-72
2022/08/28 06:14:11;;;;;;;1999.90;999.90;;;18.00;99.90;;;;;;5031837;28;20438;-72
2022/08/28 06:16:38;;;;;;;1999.90;999.90;;;18.00;99.90;;;;;;5031903;28;20419;-71
2022/08/28 06:19:05;;;;;;;1999.90;999.90;;;18.00;99.90;;;;;;5031997;28;20416;-71
2022/08/28 06:21:32;;;;;;;1999.90;999.90;;;18.00;99.90;;;;;;5031968;28;20415;-72
2022/08/28 06:23:58;;;;;;;1999.90;999.90;;;18.00;99.90;;;;;;5031780;28;20433;-72
2022/08/28 06:26:23;;;;;;;1999.90;999.90;;;18.10;99.90;;;;;;5031500;28;20455;-71
2022/08/28 06:28:50;;;;;;;1999.90;999.90;;;18.10;99.90;;;;;;5031875;28;20436;-71
2022/08/28 06:31:15;;;;;;;1999.90;999.90;;;18.10;99.90;;;;;;5032033;28;20209;-72
2022/08/28 06:33:41;;;;;;;1999.90;999.90;;;18.20;99.90;;;;;;5031600;28;20967;-72
2022/08/28 06:36:07;;;;;;;1999.90;999.90;;;18.30;99.90;;;;;;5031660;28;20176;-71
2022/08/28 06:38:33;;;;;;;1999.90;999.90;;;18.30;99.90;;;;;;5031839;28;20176;-71
2022/08/28 06:40:59;;;;;;;1999.90;999.90;;;18.30;99.90;;;;;;5031674;28;20408;-72
2022/08/28 06:43:27;;;;;;;1999.90;999.90;;;18.30;99.90;;;;;;5031708;28;20825;-72
2022/08/28 06:45:54;;;;;;;1999.90;999.90;;;18.50;99.90;;;;;;5031573;28;20203;-72
2022/08/28 06:48:22;;;;;;;1999.90;999.90;;;18.50;99.90;;;;;;5031475;28;20407;-72
2022/08/28 06:50:51;;;;;;;1999.90;999.90;;;18.50;99.90;;;;;;5031656;28;20452;-72
2022/08/28 06:53:18;;;;;;;1999.90;999.90;;;18.50;99.90;;;;;;5031592;28;20405;-72
2022/08/28 06:55:44;;;;;;;1999.90;999.90;;;18.50;99.90;;;;;;5036448;28;20437;-72
2022/08/28 06:58:11;;;;;;;1999.90;999.90;;;18.60;99.90;;;;;;5036954;28;20473;-71
2022/08/28 07:00:37;;;;;;;1999.90;999.90;;;18.60;99.90;;;;;;5037115;28;20866;-72
2022/08/28 07:03:04;;;;;;;1999.90;999.90;;;18.70;99.90;;;;;;5036769;28;20451;-72
2022/08/28 07:05:31;;;;;;;1999.90;999.90;;;18.70;99.90;;;;;;5036437;28;20666;-71
2022/08/28 07:07:57;;;;;;;1999.90;999.90;;;18.70;99.90;;;;;;5035975;28;20489;-72
2022/08/28 07:10:23;;;;;;;1999.90;999.90;;;18.80;99.90;;;;;;5034718;28;20849;-72
2022/08/28 07:12:49;;;;;;;1999.90;999.90;;;18.90;99.90;;;;;;5035066;28;20171;-72
2022/08/28 07:15:16;;;;;;;1999.90;999.90;;;19.00;99.90;;;;;;5035698;28;20269;-72
2022/08/28 07:17:42;;;;;;;1999.90;999.90;;;19.10;99.90;;;;;;5034931;28;20426;-72
2022/08/28 07:20:10;;;;;;;1999.90;999.90;;;19.20;99.90;;;;;;5037509;28;20413;-73
2022/08/28 07:22:36;;;;;;;1999.90;999.90;;;19.30;99.90;;;;;;5038263;28;20554;-72
2022/08/28 07:25:03;;;;;;;1999.90;999.90;;;19.30;99.90;;;;;;5038612;28;20454;-72
2022/08/28 07:27:30;;;;;;;1999.90;999.90;;;19.40;99.90;;;;;;5039244;28;20409;-72
2022/08/28 07:29:57;;;;;;;1999.90;999.90;;;19.50;99.90;;;;;;5038533;28;20433;-72
2022/08/28 07:32:23;;;;;;;1999.90;999.90;;;19.50;99.90;;;;;;5039813;28;20414;-71
2022/08/28 07:34:48;;;;;;;1999.90;999.90;;;19.70;99.90;;;;;;5034662;28;20443;-72
2022/08/28 07:37:17;;;;;;;1999.90;999.90;;;19.70;99.90;;;;;;5034634;28;20219;-72
2022/08/28 07:39:43;;;;;;;1999.90;999.90;;;19.60;99.90;;;;;;5034743;28;20163;-71
2022/08/28 07:44:47;;;;;;;1999.90;999.90;;;19.70;99.90;;;;;;5034810;28;20483;-71
2022/08/28 07:44:58;;;;;;;1999.90;999.90;;;19.70;99.90;;;;;;5034305;28;22404;-72
2022/08/28 07:47:30;;;;;;;1999.90;999.90;;;19.80;99.90;;;;;;5034392;28;20415;-72
2022/08/28 07:49:59;;;;;;;1999.90;999.90;;;19.90;99.90;;;;;;5034566;28;20558;-71
2022/08/28 07:52:26;;;;;;;1999.90;999.90;;;19.90;99.90;;;;;;5034549;28;20410;-71
2022/08/28 07:54:51;;;;;;;1999.90;999.90;;;19.90;99.90;;;;;;5034254;28;20433;-72
2022/08/28 07:57:19;;;;;;;1999.90;999.90;;;20.00;99.90;;;;;;5034158;28;20459;-71
2022/08/28 07:59:45;;;;;;;1999.90;999.90;;;20.00;99.90;;;;;;5034358;28;20181;-72
2022/08/28 08:02:11;;;;;;;1999.90;999.90;;;20.10;99.90;;;;;;5034310;28;20418;-72
2022/08/28 08:04:36;;;;;;;1999.90;999.90;;;20.10;99.90;;;;;;5034092;28;20511;-72
2022/08/28 08:07:03;;;;;;;1999.90;999.90;;;20.20;99.90;;;;;;5034126;28;20498;-72
2022/08/28 08:09:29;;;;;;;1999.90;999.90;;;20.30;99.90;;;;;;5034161;28;20573;-72
2022/08/28 08:11:56;;;;;;;1999.90;999.90;;;20.30;99.90;;;;;;5034174;28;20418;-72
2022/08/28 08:14:22;;;;;;;1999.90;999.90;;;20.50;99.90;;;;;;5034017;28;20206;-71
2022/08/28 08:16:48;;;;;;;1999.90;999.90;;;20.40;99.90;;;;;;5033764;28;20494;-72
2022/08/28 08:19:15;;;;;;;1999.90;999.90;;;20.40;99.90;;;;;;5034024;28;20469;-72
2022/08/28 08:21:47;;;;;;;1999.90;999.90;;;20.30;99.90;;;;;;5034087;28;20447;-72
2022/08/28 08:24:19;;;;;;;1999.90;999.90;;;20.40;99.90;;;;;;5033708;28;20522;-71
2022/08/28 08:26:48;;;;;;;1999.90;999.90;;;20.50;99.90;;;;;;5033504;28;20457;-71
2022/08/28 08:29:14;;;;;;;1999.90;999.90;;;20.60;99.90;;;;;;5033705;28;20834;-72
2022/08/28 08:31:40;;;;;;;1999.90;999.90;;;20.70;99.90;;;;;;5033789;28;20489;-72
2022/08/28 08:34:06;;;;;;;1999.90;999.90;;;20.70;99.90;;;;;;5034866;28;20457;-72
2022/08/28 08:36:34;;;;;;;1999.90;999.90;;;20.60;99.90;;;;;;5033852;28;20207;-71
2022/08/28 08:39:00;;;;;;;1999.90;999.90;;;20.70;99.90;;;;;;5033608;28;20417;-70
2022/08/28 08:41:46;;;;;;;1999.90;999.90;;;20.70;99.90;;;;;;5033565;28;20417;-70
2022/08/28 08:44:35;;;;;;;1999.90;999.90;;;20.80;99.90;;;;;;5033429;28;20524;-71
2022/08/28 08:47:21;;;;;;;1999.90;999.90;;;20.70;99.90;;;;;;5033038;28;20892;-71
2022/08/28 08:49:54;;;;;;;1999.90;999.90;;;20.80;99.90;;;;;;5033437;28;20407;-71
2022/08/28 08:52:58;;;;;;;1999.90;999.90;;;20.60;99.90;;;;;;5033343;28;20410;-71
2022/08/28 08:55:31;;;;;;;1999.90;999.90;;;20.70;99.90;;;;;;5015433;28;20451;-71
2022/08/28 08:58:02;;;;;;;1999.90;999.90;;;20.70;99.90;;;;;;5033026;28;20791;-70
2022/08/28 09:00:31;;;;;;;1999.90;999.90;;;20.70;99.90;;;;;;5033125;28;20424;-71
2022/08/28 09:03:14;;;;;;;1999.90;999.90;;;20.70;99.90;;;;;;5033076;28;20429;-71
2022/08/28 09:05:49;;;;;;;1999.90;999.90;;;20.90;99.90;;;;;;5033189;28;20953;-70
2022/08/28 09:08:25;;;;;;;1999.90;999.90;;;21.00;99.90;;;;;;5032899;28;20967;-71
2022/08/28 09:11:05;;;;;;;1999.90;999.90;;;21.20;99.90;;;;;;5032957;28;20402;-70
2022/08/28 09:13:37;;;;;;;1999.90;999.90;;;21.20;99.90;;;;;;5032963;28;20404;-70
2022/08/28 09:16:13;;;;;;;1999.90;999.90;;;21.30;99.90;;;;;;5032642;28;20491;-71
2022/08/28 09:18:39;;;;;;;1999.90;999.90;;;21.30;99.90;;;;;;5032793;28;20919;-70
2022/08/28 09:21:05;;;;;;;1999.90;999.90;;;21.30;99.90;;;;;;5032824;28;20506;-71
2022/08/28 09:23:31;;;;;;;1999.90;999.90;;;21.30;99.90;;;;;;5032632;28;20495;-71
2022/08/28 09:26:03;;;;;;;1999.90;999.90;;;21.50;99.90;;;;;;5032480;28;21002;-72
2022/08/28 09:28:34;;;;;;;1999.90;999.90;;;21.50;99.90;;;;;;5032906;28;20228;-71
2022/08/28 09:31:15;;;;;;;1999.90;999.90;;;21.50;99.90;;;;;;5032735;28;20418;-72
2022/08/28 09:33:48;;;;;;;1999.90;999.90;;;21.60;99.90;;;;;;5032390;28;20442;-71
2022/08/28 09:36:30;;;;;;;1999.90;999.90;;;21.70;99.90;;;;;;5036949;28;20415;-72
2022/08/28 09:39:04;;;;;;;1999.90;999.90;;;21.80;99.90;;;;;;5037616;28;20407;-72
2022/08/28 09:44:15;;;;;;;1999.90;999.90;;;21.90;99.90;;;;;;5036923;28;20439;-72
2022/08/28 09:46:49;;;;;;;1999.90;999.90;;;22.00;99.90;;;;;;5036367;28;20448;-72
2022/08/28 09:49:23;;;;;;;1999.90;999.90;;;22.10;99.90;;;;;;5036312;28;20196;-72
2022/08/28 09:51:49;;;;;;;1999.90;999.90;;;22.10;99.90;;;;;;5036865;28;20807;-72
2022/08/28 09:54:25;;;;;;;1999.90;999.90;;;22.20;99.90;;;;;;5037190;28;20431;-72
2022/08/28 09:56:51;;;;;;;1999.90;999.90;;;22.20;99.90;;;;;;5035957;28;20415;-72
2022/08/28 09:59:20;;;;;;;1999.90;999.90;;;22.30;99.90;;;;;;5036416;28;20421;-72
2022/08/28 10:01:47;;;;;;;1999.90;999.90;;;22.50;99.90;;;;;;5037060;28;20405;-72
2022/08/28 10:04:16;;;;;;;1999.90;999.90;;;22.50;99.90;;;;;;5035630;28;20448;-72
2022/08/28 10:07:02;;;;;;;1999.90;999.90;;;22.60;99.90;;;;;;5031745;28;20997;-72
2022/08/28 10:10:02;;;;;;;1999.90;999.90;;;22.60;99.90;;;;;;5031786;28;20515;-71
2022/08/28 10:12:39;;;;;;;1999.90;999.90;;;22.70;99.90;;;;;;5032042;28;20509;-72
2022/08/28 10:15:08;;;;;;;1999.90;999.90;;;22.60;99.90;;;;;;5031946;28;20489;-71
2022/08/28 10:18:09;;;;;;;1999.90;999.90;;;22.70;99.90;;;;;;5031715;28;20417;-71
2022/08/28 10:20:52;;;;;;;1999.90;999.90;;;22.80;99.90;;;;;;5031908;28;20380;-72
2022/08/28 10:23:33;;;;;;;1999.90;999.90;;;22.90;99.90;;;;;;5031813;28;20408;-71
2022/08/28 10:26:14;;;;;;;1999.90;999.90;;;22.80;99.90;;;;;;5031587;28;20991;-72
2022/08/28 10:28:48;;;;;;;1999.90;999.90;;;22.90;99.90;;;;;;5031967;28;20373;-72
2022/08/28 10:31:35;;;;;;;1999.90;999.90;;;23.00;99.90;;;;;;5031824;28;20960;-72
2022/08/28 10:34:10;;;;;;;1999.90;999.90;;;23.10;99.90;;;;;;5031634;28;20452;-71
2022/08/28 10:36:36;;;;;;;1999.90;999.90;;;23.10;99.90;;;;;;5031411;28;20405;-72
2022/08/28 10:39:16;;;;;;;1999.90;999.90;;;23.30;99.90;;;;;;5031976;28;20381;-72
2022/08/28 10:41:51;;;;;;;1999.90;999.90;;;23.40;99.90;;;;;;5031884;28;20395;-72
2022/08/28 10:44:23;;;;;;;1999.90;999.90;;;23.60;99.90;;;;;;5031690;28;20447;-71
2022/08/28 10:46:54;;;;;;;1999.90;999.90;;;23.60;99.90;;;;;;5031358;28;20459;-70
2022/08/28 10:49:57;;;;;;;1999.90;999.90;;;23.80;99.90;;;;;;5031738;28;20478;-71
2022/08/28 10:52:57;;;;;;;1999.90;999.90;;;23.40;99.90;;;;;;4990444;28;20385;-71
2022/08/28 10:55:33;;;;;;;1999.90;999.90;;;23.50;99.90;;;;;;4991255;28;20458;-70
2022/08/28 10:58:07;;;;;;;1999.90;999.90;;;23.90;99.90;;;;;;5035309;28;20385;-70
2022/08/28 11:00:34;;;;;;;1999.90;999.90;;;24.10;99.90;;;;;;5035565;28;20886;-70
2022/08/28 11:03:07;;;;;;;1999.90;999.90;;;24.20;99.40;;;;;;5035448;28;20393;-70
2022/08/28 11:05:46;;;;;;;1999.90;999.90;;;24.40;99.40;;;;;;5035195;28;20805;-71
2022/08/28 11:08:25;;;;;;;1999.90;999.90;;;24.70;96.30;;;;;;5035161;28;20372;-72
2022/08/28 11:10:53;;;;;;;1999.90;999.90;;;24.90;95.20;;;;;;5035438;28;20385;-71
2022/08/28 11:13:37;;;;;;;1999.90;999.90;;;24.70;93.80;;;;;;5035208;28;20389;-71
2022/08/28 11:16:15;;;;;;;1999.90;999.90;;;24.90;93.80;;;;;;5034821;28;20407;-71
2022/08/28 11:19:05;;;;;;;1999.90;999.90;;;25.00;92.10;;;;;;5035184;28;20902;-70
2022/08/28 11:21:41;;;;;;;1999.90;999.90;;;25.10;90.90;;;;;;5035069;28;20399;-71
2022/08/28 11:24:20;;;;;;;1999.90;999.90;;;25.20;90.20;;;;;;5035053;28;20412;-71
2022/08/28 11:26:57;;;;;;;1999.90;999.90;;;25.40;88.20;;;;;;5034632;28;20561;-71
2022/08/28 11:30:00;;;;;;;1999.90;999.90;;;25.50;85.20;;;;;;5035072;28;20421;-72
2022/08/28 11:32:53;;;;;;;1999.90;999.90;;;25.70;83.10;;;;;;5034900;28;20405;-72
2022/08/28 11:35:28;;;;;;;1999.90;999.90;;;25.80;81.40;;;;;;5034595;28;20449;-72
2022/08/28 11:37:55;;;;;;;1999.90;999.90;;;25.90;79.20;;;;;;5034541;28;20381;-72
2022/08/28 11:40:33;;;;;;;1999.90;999.90;;;26.00;74.30;;;;;;5034786;28;20751;-71
2022/08/28 11:43:13;;;;;;;1999.90;999.90;;;26.00;75.60;;;;;;5034732;28;20384;-72
2022/08/28 11:45:42;;;;;;;1999.90;999.90;;;26.10;69.40;;;;;;5034617;28;20477;-72
2022/08/28 11:48:35;;;;;;;1999.90;999.90;;;26.10;69.40;;;;;;5035755;28;20400;-72
2022/08/28 11:51:21;;;;;;;1999.90;999.90;;;26.30;67.70;;;;;;5004627;28;20411;-73
2022/08/28 11:53:52;;;;;;;1999.90;999.90;;;26.70;63.10;;;;;;5040817;28;20409;-72
2022/08/28 11:56:43;;;;;;;1999.90;999.90;;;27.10;61.00;;;;;;5041089;28;20438;-72
2022/08/28 11:59:20;;;;;;;1999.90;999.90;;;27.80;57.50;;;;;;5041209;28;20377;-73
2022/08/28 12:01:46;;;;;;;1999.90;999.90;;;28.50;52.60;;;;;;5040165;28;20414;-72
2022/08/28 12:04:18;;;;;;;1999.90;999.90;;;29.00;50.10;;;;;;5041140;28;20426;-73
2022/08/28 12:06:44;;;;;;;1999.90;999.90;;;29.10;42.80;;;;;;5041682;28;20241;-72
2022/08/28 12:09:11;;;;;;;1999.90;999.90;;;29.10;43.80;;;;;;5041856;28;20426;-72
2022/08/28 12:11:40;;;;;;;1999.90;999.90;;;29.50;41.00;;;;;;5040394;28;20553;-73
2022/08/28 12:14:06;;;;;;;1999.90;999.90;;;30.30;40.60;;;;;;5041224;28;20486;-72
2022/08/28 12:16:57;;;;;;;1999.90;999.90;;;31.00;35.30;;;;;;5041833;28;20831;-72
2022/08/28 12:19:32;;;;;;;1999.90;999.90;;;30.30;33.40;;;;;;5041983;28;20825;-72